sensor_id;sensor_type;location;lat;lon;timestamp;P1;durP1;ratioP1;P2;durP2;ratioP2
62338;SDS011;48368;53.406;6.214;2022-09-14T00:00:58;6.38;;;0.73;;
62338;SDS011;48368;53.406;6.214;2022-09-14T00:03:24;5.03;;;0.70;;
62338;SDS011;48368;53.406;6.214;2022-09-14T00:05:49;1.35;;;0.40;;
62338;SDS011;48368;53.406;6.214;2022-09-14T00:08:15;3.25;;;0.68;;
62338;SDS011;48368;53.406;6.214;2022-09-14T00:10:41;2.95;;;0.55;;
62338;SDS011;48368;53.406;6.214;2022-09-14T00:13:09;7.05;;;0.50;;
62338;SDS011;48368;53.406;6.214;2022-09-14T00:15:36;4.70;;;0.70;;
62338;SDS011;48368;53.406;6.214;2022-09-14T00:18:03;5.72;;;0.43;;
62338;SDS011;48368;53.406;6.214;2022-09-14T00:20:30;3.20;;;0.60;;
62338;SDS011;48368;53.406;6.214;2022-09-14T00:22:56;5.68;;;0.65;;
62338;SDS011;48368;53.406;6.214;2022-09-14T00:25:22;3.20;;;0.50;;
62338;SDS011;48368;53.406;6.214;2022-09-14T00:27:48;4.70;;;0.60;;
62338;SDS011;48368;53.406;6.214;2022-09-14T00:30:13;3.47;;;0.60;;
62338;SDS011;48368;53.406;6.214;2022-09-14T00:32:39;5.22;;;0.60;;
62338;SDS011;48368;53.406;6.214;2022-09-14T00:35:05;4.95;;;0.82;;
62338;SDS011;48368;53.406;6.214;2022-09-14T00:37:31;6.55;;;0.80;;
62338;SDS011;48368;53.406;6.214;2022-09-14T00:39:56;6.57;;;0.80;;
62338;SDS011;48368;53.406;6.214;2022-09-14T00:42:22;4.20;;;0.88;;
62338;SDS011;48368;53.406;6.214;2022-09-14T00:47:14;3.42;;;0.52;;
62338;SDS011;48368;53.406;6.214;2022-09-14T00:49:41;4.70;;;0.70;;
62338;SDS011;48368;53.406;6.214;2022-09-14T00:54:40;6.13;;;0.90;;
62338;SDS011;48368;53.406;6.214;2022-09-14T00:57:08;4.80;;;0.85;;
62338;SDS011;48368;53.406;6.214;2022-09-14T00:59:35;4.05;;;0.50;;
62338;SDS011;48368;53.406;6.214;2022-09-14T01:02:03;6.25;;;0.43;;
62338;SDS011;48368;53.406;6.214;2022-09-14T01:04:31;2.90;;;0.50;;
62338;SDS011;48368;53.406;6.214;2022-09-14T01:20:28;3.17;;;0.47;;
62338;SDS011;48368;53.406;6.214;2022-09-14T01:31:14;5.13;;;0.47;;
62338;SDS011;48368;53.406;6.214;2022-09-14T01:33:48;3.97;;;0.50;;
62338;SDS011;48368;53.406;6.214;2022-09-14T01:36:19;4.90;;;0.30;;
62338;SDS011;48368;53.406;6.214;2022-09-14T01:38:47;5.22;;;0.50;;
62338;SDS011;48368;53.406;6.214;2022-09-14T01:41:16;4.85;;;0.40;;
62338;SDS011;48368;53.406;6.214;2022-09-14T01:43:59;4.38;;;0.55;;
62338;SDS011;48368;53.406;6.214;2022-09-14T01:46:38;5.30;;;0.30;;
62338;SDS011;48368;53.406;6.214;2022-09-14T01:54:41;3.30;;;0.60;;
62338;SDS011;48368;53.406;6.214;2022-09-14T02:00:05;3.20;;;0.30;;
62338;SDS011;48368;53.406;6.214;2022-09-14T02:02:36;2.38;;;0.52;;
62338;SDS011;48368;53.406;6.214;2022-09-14T02:07:33;4.93;;;0.30;;
62338;SDS011;48368;53.406;6.214;2022-09-14T02:10:01;2.15;;;0.40;;
62338;SDS011;48368;53.406;6.214;2022-09-14T02:12:30;3.63;;;0.40;;
62338;SDS011;48368;53.406;6.214;2022-09-14T02:14:55;2.38;;;0.30;;
62338;SDS011;48368;53.406;6.214;2022-09-14T02:17:21;2.58;;;0.30;;
62338;SDS011;48368;53.406;6.214;2022-09-14T02:19:57;2.92;;;0.20;;
62338;SDS011;48368;53.406;6.214;2022-09-14T02:22:25;2.55;;;0.20;;
62338;SDS011;48368;53.406;6.214;2022-09-14T02:24:52;4.85;;;0.57;;
62338;SDS011;48368;53.406;6.214;2022-09-14T02:27:18;2.47;;;0.75;;
62338;SDS011;48368;53.406;6.214;2022-09-14T02:29:44;2.75;;;0.20;;
62338;SDS011;48368;53.406;6.214;2022-09-14T02:32:14;3.90;;;0.30;;
62338;SDS011;48368;53.406;6.214;2022-09-14T02:35:05;1.25;;;0.22;;
62338;SDS011;48368;53.406;6.214;2022-09-14T02:40:34;2.72;;;0.38;;
62338;SDS011;48368;53.406;6.214;2022-09-14T02:46:12;2.97;;;0.30;;
62338;SDS011;48368;53.406;6.214;2022-09-14T02:57:31;3.13;;;0.10;;
62338;SDS011;48368;53.406;6.214;2022-09-14T02:59:56;1.20;;;0.10;;
62338;SDS011;48368;53.406;6.214;2022-09-14T03:02:22;0.93;;;0.20;;
62338;SDS011;48368;53.406;6.214;2022-09-14T03:04:48;2.70;;;0.20;;
62338;SDS011;48368;53.406;6.214;2022-09-14T03:07:14;1.73;;;0.20;;
62338;SDS011;48368;53.406;6.214;2022-09-14T03:09:39;2.05;;;0.22;;
62338;SDS011;48368;53.406;6.214;2022-09-14T03:12:05;2.03;;;0.40;;
62338;SDS011;48368;53.406;6.214;2022-09-14T03:14:30;4.40;;;0.30;;
62338;SDS011;48368;53.406;6.214;2022-09-14T03:16:56;3.15;;;0.30;;
62338;SDS011;48368;53.406;6.214;2022-09-14T03:19:21;2.67;;;0.30;;
62338;SDS011;48368;53.406;6.214;2022-09-14T03:21:47;2.15;;;0.40;;
62338;SDS011;48368;53.406;6.214;2022-09-14T03:24:13;3.45;;;0.30;;
62338;SDS011;48368;53.406;6.214;2022-09-14T03:26:38;1.58;;;0.50;;
62338;SDS011;48368;53.406;6.214;2022-09-14T03:29:05;4.90;;;1.75;;
62338;SDS011;48368;53.406;6.214;2022-09-14T03:31:31;3.63;;;0.70;;
62338;SDS011;48368;53.406;6.214;2022-09-14T03:33:59;4.65;;;0.63;;
62338;SDS011;48368;53.406;6.214;2022-09-14T03:36:26;5.88;;;0.50;;
62338;SDS011;48368;53.406;6.214;2022-09-14T03:38:54;4.30;;;0.50;;
62338;SDS011;48368;53.406;6.214;2022-09-14T03:41:21;4.65;;;0.88;;
62338;SDS011;48368;53.406;6.214;2022-09-14T03:43:48;4.43;;;0.70;;
62338;SDS011;48368;53.406;6.214;2022-09-14T03:46:15;5.30;;;0.50;;
62338;SDS011;48368;53.406;6.214;2022-09-14T03:48:42;5.32;;;0.60;;
62338;SDS011;48368;53.406;6.214;2022-09-14T03:51:09;3.78;;;0.35;;
62338;SDS011;48368;53.406;6.214;2022-09-14T03:53:36;7.00;;;0.63;;
62338;SDS011;48368;53.406;6.214;2022-09-14T03:56:09;4.63;;;0.70;;
62338;SDS011;48368;53.406;6.214;2022-09-14T03:58:41;3.72;;;0.35;;
62338;SDS011;48368;53.406;6.214;2022-09-14T04:01:08;4.10;;;0.60;;
62338;SDS011;48368;53.406;6.214;2022-09-14T04:03:36;4.75;;;0.80;;
62338;SDS011;48368;53.406;6.214;2022-09-14T04:06:02;8.02;;;0.60;;
62338;SDS011;48368;53.406;6.214;2022-09-14T04:08:31;5.63;;;0.63;;
62338;SDS011;48368;53.406;6.214;2022-09-14T04:10:58;6.60;;;0.73;;
62338;SDS011;48368;53.406;6.214;2022-09-14T04:13:24;4.35;;;0.80;;
62338;SDS011;48368;53.406;6.214;2022-09-14T04:15:59;4.22;;;1.40;;
62338;SDS011;48368;53.406;6.214;2022-09-14T04:18:26;6.38;;;0.82;;
62338;SDS011;48368;53.406;6.214;2022-09-14T04:20:55;5.00;;;0.82;;
62338;SDS011;48368;53.406;6.214;2022-09-14T04:23:41;5.57;;;1.10;;
62338;SDS011;48368;53.406;6.214;2022-09-14T04:26:10;3.13;;;0.55;;
62338;SDS011;48368;53.406;6.214;2022-09-14T04:28:42;4.72;;;0.80;;
62338;SDS011;48368;53.406;6.214;2022-09-14T04:31:08;5.00;;;0.82;;
62338;SDS011;48368;53.406;6.214;2022-09-14T04:33:35;2.88;;;0.60;;
62338;SDS011;48368;53.406;6.214;2022-09-14T04:36:06;6.68;;;1.65;;
62338;SDS011;48368;53.406;6.214;2022-09-14T04:38:37;7.45;;;0.68;;
62338;SDS011;48368;53.406;6.214;2022-09-14T04:41:03;6.55;;;1.05;;
62338;SDS011;48368;53.406;6.214;2022-09-14T04:43:31;7.15;;;0.55;;
62338;SDS011;48368;53.406;6.214;2022-09-14T04:46:01;8.25;;;0.70;;
62338;SDS011;48368;53.406;6.214;2022-09-14T04:48:29;8.27;;;0.80;;
62338;SDS011;48368;53.406;6.214;2022-09-14T04:51:02;2.03;;;0.50;;
62338;SDS011;48368;53.406;6.214;2022-09-14T04:53:31;6.13;;;1.10;;
62338;SDS011;48368;53.406;6.214;2022-09-14T04:55:59;5.80;;;0.52;;
62338;SDS011;48368;53.406;6.214;2022-09-14T04:58:25;6.88;;;0.70;;
62338;SDS011;48368;53.406;6.214;2022-09-14T05:00:53;4.63;;;0.50;;
62338;SDS011;48368;53.406;6.214;2022-09-14T05:03:20;3.90;;;0.70;;
62338;SDS011;48368;53.406;6.214;2022-09-14T05:05:46;5.78;;;0.90;;
62338;SDS011;48368;53.406;6.214;2022-09-14T05:08:12;2.35;;;0.50;;
62338;SDS011;48368;53.406;6.214;2022-09-14T05:10:37;4.25;;;0.95;;
62338;SDS011;48368;53.406;6.214;2022-09-14T05:13:03;6.45;;;0.63;;
62338;SDS011;48368;53.406;6.214;2022-09-14T05:15:28;5.85;;;0.70;;
62338;SDS011;48368;53.406;6.214;2022-09-14T05:17:54;6.88;;;0.50;;
62338;SDS011;48368;53.406;6.214;2022-09-14T05:20:20;4.30;;;0.50;;
62338;SDS011;48368;53.406;6.214;2022-09-14T05:22:48;6.60;;;0.90;;
62338;SDS011;48368;53.406;6.214;2022-09-14T05:25:15;4.93;;;0.50;;
62338;SDS011;48368;53.406;6.214;2022-09-14T05:27:40;7.07;;;0.70;;
62338;SDS011;48368;53.406;6.214;2022-09-14T05:30:06;8.98;;;1.27;;
62338;SDS011;48368;53.406;6.214;2022-09-14T05:32:32;4.53;;;0.77;;
62338;SDS011;48368;53.406;6.214;2022-09-14T05:34:58;4.05;;;0.80;;
62338;SDS011;48368;53.406;6.214;2022-09-14T05:37:24;4.95;;;0.80;;
62338;SDS011;48368;53.406;6.214;2022-09-14T05:39:50;3.13;;;0.77;;
62338;SDS011;48368;53.406;6.214;2022-09-14T05:42:15;3.13;;;1.02;;
62338;SDS011;48368;53.406;6.214;2022-09-14T05:44:41;3.63;;;0.60;;
62338;SDS011;48368;53.406;6.214;2022-09-14T05:47:07;6.68;;;0.90;;
62338;SDS011;48368;53.406;6.214;2022-09-14T05:49:32;7.05;;;0.85;;
62338;SDS011;48368;53.406;6.214;2022-09-14T05:51:58;4.40;;;0.60;;
62338;SDS011;48368;53.406;6.214;2022-09-14T05:54:23;5.55;;;0.68;;
62338;SDS011;48368;53.406;6.214;2022-09-14T05:56:49;7.60;;;0.90;;
62338;SDS011;48368;53.406;6.214;2022-09-14T05:59:15;3.78;;;0.63;;
62338;SDS011;48368;53.406;6.214;2022-09-14T06:01:40;5.85;;;0.82;;
62338;SDS011;48368;53.406;6.214;2022-09-14T06:04:06;5.68;;;0.80;;
62338;SDS011;48368;53.406;6.214;2022-09-14T06:06:34;6.25;;;0.88;;
62338;SDS011;48368;53.406;6.214;2022-09-14T06:09:00;4.13;;;0.60;;
62338;SDS011;48368;53.406;6.214;2022-09-14T06:11:27;6.43;;;0.68;;
62338;SDS011;48368;53.406;6.214;2022-09-14T06:13:54;5.07;;;0.65;;
62338;SDS011;48368;53.406;6.214;2022-09-14T06:16:21;6.50;;;0.88;;
62338;SDS011;48368;53.406;6.214;2022-09-14T06:18:48;5.80;;;0.63;;
62338;SDS011;48368;53.406;6.214;2022-09-14T06:21:15;4.80;;;0.75;;
62338;SDS011;48368;53.406;6.214;2022-09-14T06:23:43;2.97;;;0.50;;
62338;SDS011;48368;53.406;6.214;2022-09-14T06:26:09;4.70;;;0.88;;
62338;SDS011;48368;53.406;6.214;2022-09-14T06:28:35;5.75;;;0.90;;
62338;SDS011;48368;53.406;6.214;2022-09-14T06:31:01;6.70;;;0.90;;
62338;SDS011;48368;53.406;6.214;2022-09-14T06:33:29;7.78;;;0.88;;
62338;SDS011;48368;53.406;6.214;2022-09-14T06:36:02;4.45;;;0.70;;
62338;SDS011;48368;53.406;6.214;2022-09-14T06:38:36;7.00;;;0.73;;
62338;SDS011;48368;53.406;6.214;2022-09-14T06:41:03;5.05;;;0.60;;
62338;SDS011;48368;53.406;6.214;2022-09-14T06:43:31;4.93;;;0.82;;
62338;SDS011;48368;53.406;6.214;2022-09-14T06:45:59;4.10;;;0.57;;
62338;SDS011;48368;53.406;6.214;2022-09-14T06:48:28;4.82;;;1.30;;
62338;SDS011;48368;53.406;6.214;2022-09-14T06:50:55;5.97;;;0.52;;
62338;SDS011;48368;53.406;6.214;2022-09-14T06:53:21;7.50;;;0.80;;
62338;SDS011;48368;53.406;6.214;2022-09-14T06:55:50;3.30;;;0.47;;
62338;SDS011;48368;53.406;6.214;2022-09-14T06:58:29;6.53;;;0.82;;
62338;SDS011;48368;53.406;6.214;2022-09-14T07:00:59;6.13;;;1.10;;
62338;SDS011;48368;53.406;6.214;2022-09-14T07:03:27;4.25;;;0.52;;
62338;SDS011;48368;53.406;6.214;2022-09-14T07:05:52;9.13;;;1.45;;
62338;SDS011;48368;53.406;6.214;2022-09-14T07:08:29;5.68;;;0.77;;
62338;SDS011;48368;53.406;6.214;2022-09-14T07:10:55;6.78;;;0.77;;
62338;SDS011;48368;53.406;6.214;2022-09-14T07:13:22;4.30;;;0.60;;
62338;SDS011;48368;53.406;6.214;2022-09-14T07:15:48;4.20;;;0.70;;
62338;SDS011;48368;53.406;6.214;2022-09-14T07:18:14;4.82;;;0.77;;
62338;SDS011;48368;53.406;6.214;2022-09-14T07:20:40;2.40;;;0.50;;
62338;SDS011;48368;53.406;6.214;2022-09-14T07:23:06;4.18;;;0.52;;
62338;SDS011;48368;53.406;6.214;2022-09-14T07:25:32;4.85;;;0.60;;
62338;SDS011;48368;53.406;6.214;2022-09-14T07:27:57;5.50;;;0.88;;
62338;SDS011;48368;53.406;6.214;2022-09-14T07:30:24;5.97;;;0.85;;
62338;SDS011;48368;53.406;6.214;2022-09-14T07:32:52;3.58;;;0.85;;
62338;SDS011;48368;53.406;6.214;2022-09-14T07:35:18;6.32;;;1.35;;
62338;SDS011;48368;53.406;6.214;2022-09-14T07:37:44;4.57;;;0.90;;
62338;SDS011;48368;53.406;6.214;2022-09-14T07:40:10;6.43;;;0.73;;
62338;SDS011;48368;53.406;6.214;2022-09-14T07:42:36;5.40;;;0.75;;
62338;SDS011;48368;53.406;6.214;2022-09-14T07:45:03;4.45;;;0.70;;
62338;SDS011;48368;53.406;6.214;2022-09-14T07:47:30;8.02;;;1.10;;
62338;SDS011;48368;53.406;6.214;2022-09-14T07:49:56;4.03;;;1.10;;
62338;SDS011;48368;53.406;6.214;2022-09-14T07:52:22;5.15;;;1.08;;
62338;SDS011;48368;53.406;6.214;2022-09-14T07:54:47;5.60;;;0.80;;
62338;SDS011;48368;53.406;6.214;2022-09-14T07:57:13;5.63;;;0.73;;
62338;SDS011;48368;53.406;6.214;2022-09-14T07:59:39;3.63;;;0.80;;
62338;SDS011;48368;53.406;6.214;2022-09-14T08:02:06;5.60;;;0.82;;
62338;SDS011;48368;53.406;6.214;2022-09-14T08:04:33;5.40;;;0.80;;
62338;SDS011;48368;53.406;6.214;2022-09-14T08:07:00;4.18;;;0.70;;
62338;SDS011;48368;53.406;6.214;2022-09-14T08:09:26;3.38;;;0.77;;
62338;SDS011;48368;53.406;6.214;2022-09-14T08:11:51;6.30;;;0.85;;
62338;SDS011;48368;53.406;6.214;2022-09-14T08:14:17;3.45;;;0.70;;
62338;SDS011;48368;53.406;6.214;2022-09-14T08:16:43;4.68;;;1.05;;
62338;SDS011;48368;53.406;6.214;2022-09-14T08:19:13;5.45;;;0.80;;
62338;SDS011;48368;53.406;6.214;2022-09-14T08:21:41;9.23;;;1.00;;
62338;SDS011;48368;53.406;6.214;2022-09-14T08:24:07;3.78;;;0.90;;
62338;SDS011;48368;53.406;6.214;2022-09-14T08:26:36;3.65;;;0.70;;
62338;SDS011;48368;53.406;6.214;2022-09-14T08:29:02;5.05;;;0.70;;
62338;SDS011;48368;53.406;6.214;2022-09-14T08:31:29;5.45;;;1.00;;
62338;SDS011;48368;53.406;6.214;2022-09-14T08:36:22;4.88;;;0.68;;
62338;SDS011;48368;53.406;6.214;2022-09-14T08:38:49;4.50;;;1.02;;
62338;SDS011;48368;53.406;6.214;2022-09-14T08:44:22;5.50;;;0.70;;
62338;SDS011;48368;53.406;6.214;2022-09-14T08:46:52;5.72;;;0.75;;
62338;SDS011;48368;53.406;6.214;2022-09-14T08:49:37;9.50;;;0.88;;
62338;SDS011;48368;53.406;6.214;2022-09-14T08:52:12;5.72;;;1.00;;
62338;SDS011;48368;53.406;6.214;2022-09-14T08:54:47;4.85;;;0.80;;
62338;SDS011;48368;53.406;6.214;2022-09-14T08:57:16;11.68;;;1.00;;
62338;SDS011;48368;53.406;6.214;2022-09-14T08:59:50;5.97;;;0.88;;
62338;SDS011;48368;53.406;6.214;2022-09-14T09:02:33;4.35;;;0.65;;
62338;SDS011;48368;53.406;6.214;2022-09-14T09:07:54;7.07;;;1.05;;
62338;SDS011;48368;53.406;6.214;2022-09-14T09:10:39;3.92;;;0.65;;
62338;SDS011;48368;53.406;6.214;2022-09-14T09:13:06;8.13;;;0.80;;
62338;SDS011;48368;53.406;6.214;2022-09-14T09:15:42;4.43;;;0.98;;
62338;SDS011;48368;53.406;6.214;2022-09-14T09:21:03;3.30;;;0.70;;
62338;SDS011;48368;53.406;6.214;2022-09-14T09:23:33;4.88;;;0.88;;
62338;SDS011;48368;53.406;6.214;2022-09-14T09:26:03;4.85;;;0.80;;
62338;SDS011;48368;53.406;6.214;2022-09-14T09:28:38;6.13;;;0.70;;
62338;SDS011;48368;53.406;6.214;2022-09-14T09:31:32;5.25;;;0.70;;
62338;SDS011;48368;53.406;6.214;2022-09-14T09:33:59;3.97;;;0.80;;
62338;SDS011;48368;53.406;6.214;2022-09-14T09:36:25;3.58;;;0.77;;
62338;SDS011;48368;53.406;6.214;2022-09-14T09:38:58;5.07;;;0.90;;
62338;SDS011;48368;53.406;6.214;2022-09-14T09:41:25;2.85;;;0.70;;
62338;SDS011;48368;53.406;6.214;2022-09-14T09:46:22;4.82;;;0.80;;
62338;SDS011;48368;53.406;6.214;2022-09-14T09:48:47;5.70;;;1.05;;
62338;SDS011;48368;53.406;6.214;2022-09-14T09:56:27;4.50;;;0.82;;
62338;SDS011;48368;53.406;6.214;2022-09-14T09:58:57;5.15;;;1.13;;
62338;SDS011;48368;53.406;6.214;2022-09-14T10:01:26;7.00;;;1.35;;
62338;SDS011;48368;53.406;6.214;2022-09-14T10:04:00;5.18;;;0.88;;
62338;SDS011;48368;53.406;6.214;2022-09-14T10:06:26;6.07;;;1.65;;
62338;SDS011;48368;53.406;6.214;2022-09-14T10:08:51;8.82;;;1.90;;
62338;SDS011;48368;53.406;6.214;2022-09-14T10:13:50;4.67;;;0.80;;
62338;SDS011;48368;53.406;6.214;2022-09-14T10:16:17;3.03;;;0.80;;
62338;SDS011;48368;53.406;6.214;2022-09-14T10:18:48;3.70;;;0.90;;
62338;SDS011;48368;53.406;6.214;2022-09-14T10:21:19;4.95;;;0.63;;
62338;SDS011;48368;53.406;6.214;2022-09-14T10:24:35;8.10;;;1.02;;
62338;SDS011;48368;53.406;6.214;2022-09-14T10:26:44;5.82;;;0.93;;
62338;SDS011;48368;53.406;6.214;2022-09-14T10:30:11;3.25;;;0.70;;
62338;SDS011;48368;53.406;6.214;2022-09-14T10:32:12;5.70;;;1.33;;
62338;SDS011;48368;53.406;6.214;2022-09-14T10:34:44;5.45;;;1.00;;
62338;SDS011;48368;53.406;6.214;2022-09-14T10:37:17;5.65;;;0.90;;
62338;SDS011;48368;53.406;6.214;2022-09-14T10:40:12;8.20;;;0.88;;
62338;SDS011;48368;53.406;6.214;2022-09-14T10:42:43;6.90;;;0.90;;
62338;SDS011;48368;53.406;6.214;2022-09-14T10:45:40;4.95;;;0.68;;
62338;SDS011;48368;53.406;6.214;2022-09-14T10:51:38;8.20;;;1.00;;
62338;SDS011;48368;53.406;6.214;2022-09-14T11:00:10;6.38;;;1.20;;
62338;SDS011;48368;53.406;6.214;2022-09-14T11:05:45;4.75;;;0.80;;
62338;SDS011;48368;53.406;6.214;2022-09-14T11:11:09;6.10;;;0.90;;
62338;SDS011;48368;53.406;6.214;2022-09-14T11:13:56;6.65;;;0.93;;
62338;SDS011;48368;53.406;6.214;2022-09-14T11:25:20;4.13;;;0.75;;
62338;SDS011;48368;53.406;6.214;2022-09-14T11:27:56;6.25;;;0.80;;
62338;SDS011;48368;53.406;6.214;2022-09-14T11:30:38;4.95;;;0.98;;
62338;SDS011;48368;53.406;6.214;2022-09-14T11:33:19;5.85;;;0.90;;
62338;SDS011;48368;53.406;6.214;2022-09-14T11:35:52;7.03;;;1.13;;
62338;SDS011;48368;53.406;6.214;2022-09-14T11:38:25;5.00;;;0.95;;
62338;SDS011;48368;53.406;6.214;2022-09-14T11:40:57;4.00;;;0.85;;
62338;SDS011;48368;53.406;6.214;2022-09-14T11:46:21;6.15;;;0.82;;
62338;SDS011;48368;53.406;6.214;2022-09-14T11:48:58;3.10;;;0.75;;
62338;SDS011;48368;53.406;6.214;2022-09-14T11:51:42;5.65;;;0.93;;
62338;SDS011;48368;53.406;6.214;2022-09-14T11:54:23;8.82;;;1.17;;
62338;SDS011;48368;53.406;6.214;2022-09-14T11:56:53;3.97;;;0.50;;
62338;SDS011;48368;53.406;6.214;2022-09-14T12:12:42;7.20;;;1.38;;
62338;SDS011;48368;53.406;6.214;2022-09-14T12:17:41;5.32;;;1.10;;
62338;SDS011;48368;53.406;6.214;2022-09-14T12:26:31;4.50;;;1.02;;
62338;SDS011;48368;53.406;6.214;2022-09-14T12:28:48;7.93;;;1.20;;
62338;SDS011;48368;53.406;6.214;2022-09-14T12:34:04;5.35;;;0.70;;
62338;SDS011;48368;53.406;6.214;2022-09-14T12:39:05;5.82;;;0.80;;
62338;SDS011;48368;53.406;6.214;2022-09-14T12:48:03;5.63;;;0.88;;
62338;SDS011;48368;53.406;6.214;2022-09-14T12:50:03;6.13;;;0.90;;
62338;SDS011;48368;53.406;6.214;2022-09-14T12:58:04;4.75;;;0.60;;
62338;SDS011;48368;53.406;6.214;2022-09-14T13:03:52;5.50;;;0.85;;
62338;SDS011;48368;53.406;6.214;2022-09-14T13:06:20;5.22;;;0.63;;
62338;SDS011;48368;53.406;6.214;2022-09-14T13:08:49;2.92;;;0.77;;
62338;SDS011;48368;53.406;6.214;2022-09-14T13:11:19;2.55;;;0.60;;
62338;SDS011;48368;53.406;6.214;2022-09-14T13:13:47;3.60;;;0.90;;
62338;SDS011;48368;53.406;6.214;2022-09-14T13:16:15;3.83;;;0.60;;
62338;SDS011;48368;53.406;6.214;2022-09-14T13:18:58;3.13;;;0.77;;
62338;SDS011;48368;53.406;6.214;2022-09-14T13:23:51;4.32;;;0.50;;
62338;SDS011;48368;53.406;6.214;2022-09-14T13:26:20;5.43;;;0.88;;
62338;SDS011;48368;53.406;6.214;2022-09-14T13:28:49;5.47;;;0.95;;
62338;SDS011;48368;53.406;6.214;2022-09-14T13:31:17;2.72;;;0.50;;
62338;SDS011;48368;53.406;6.214;2022-09-14T13:34:01;4.03;;;0.57;;
62338;SDS011;48368;53.406;6.214;2022-09-14T13:36:29;4.07;;;0.88;;
62338;SDS011;48368;53.406;6.214;2022-09-14T13:38:57;8.73;;;1.75;;
62338;SDS011;48368;53.406;6.214;2022-09-14T13:41:26;2.47;;;0.52;;
62338;SDS011;48368;53.406;6.214;2022-09-14T13:43:53;4.20;;;0.90;;
62338;SDS011;48368;53.406;6.214;2022-09-14T13:46:21;2.40;;;0.60;;
62338;SDS011;48368;53.406;6.214;2022-09-14T13:48:48;4.53;;;1.10;;
62338;SDS011;48368;53.406;6.214;2022-09-14T13:51:15;3.83;;;0.70;;
62338;SDS011;48368;53.406;6.214;2022-09-14T13:53:46;2.58;;;0.60;;
62338;SDS011;48368;53.406;6.214;2022-09-14T14:01:36;5.57;;;0.70;;
62338;SDS011;48368;53.406;6.214;2022-09-14T14:04:23;3.53;;;0.60;;
62338;SDS011;48368;53.406;6.214;2022-09-14T14:09:54;2.60;;;0.75;;
62338;SDS011;48368;53.406;6.214;2022-09-14T14:17:36;7.63;;;1.50;;
62338;SDS011;48368;53.406;6.214;2022-09-14T14:22:55;3.70;;;0.57;;
62338;SDS011;48368;53.406;6.214;2022-09-14T14:25:30;4.82;;;1.00;;
62338;SDS011;48368;53.406;6.214;2022-09-14T14:28:02;6.65;;;0.70;;
62338;SDS011;48368;53.406;6.214;2022-09-14T14:30:32;4.28;;;0.80;;
62338;SDS011;48368;53.406;6.214;2022-09-14T14:33:02;5.88;;;1.00;;
62338;SDS011;48368;53.406;6.214;2022-09-14T14:35:30;4.10;;;0.75;;
62338;SDS011;48368;53.406;6.214;2022-09-14T14:37:56;6.25;;;1.10;;
62338;SDS011;48368;53.406;6.214;2022-09-14T14:40:22;5.93;;;1.02;;
62338;SDS011;48368;53.406;6.214;2022-09-14T14:42:51;3.70;;;0.65;;
62338;SDS011;48368;53.406;6.214;2022-09-14T14:45:18;3.90;;;0.70;;
62338;SDS011;48368;53.406;6.214;2022-09-14T14:47:46;7.93;;;0.65;;
62338;SDS011;48368;53.406;6.214;2022-09-14T14:50:14;3.08;;;0.70;;
62338;SDS011;48368;53.406;6.214;2022-09-14T14:52:41;4.97;;;0.90;;
62338;SDS011;48368;53.406;6.214;2022-09-14T14:55:07;4.13;;;1.27;;
62338;SDS011;48368;53.406;6.214;2022-09-14T14:57:34;3.67;;;0.90;;
62338;SDS011;48368;53.406;6.214;2022-09-14T15:00:01;2.70;;;0.80;;
62338;SDS011;48368;53.406;6.214;2022-09-14T15:02:27;5.32;;;0.90;;
62338;SDS011;48368;53.406;6.214;2022-09-14T15:04:53;6.07;;;0.77;;
62338;SDS011;48368;53.406;6.214;2022-09-14T15:07:18;10.25;;;1.33;;
62338;SDS011;48368;53.406;6.214;2022-09-14T15:09:44;4.05;;;0.82;;
62338;SDS011;48368;53.406;6.214;2022-09-14T15:12:09;6.32;;;1.20;;
62338;SDS011;48368;53.406;6.214;2022-09-14T15:14:35;4.82;;;0.52;;
62338;SDS011;48368;53.406;6.214;2022-09-14T15:17:01;3.03;;;0.63;;
62338;SDS011;48368;53.406;6.214;2022-09-14T15:29:54;3.80;;;0.75;;
62338;SDS011;48368;53.406;6.214;2022-09-14T15:32:24;6.43;;;1.38;;
62338;SDS011;48368;53.406;6.214;2022-09-14T15:34:50;6.05;;;0.68;;
62338;SDS011;48368;53.406;6.214;2022-09-14T15:37:17;2.33;;;0.70;;
62338;SDS011;48368;53.406;6.214;2022-09-14T15:39:43;5.25;;;1.00;;
62338;SDS011;48368;53.406;6.214;2022-09-14T16:08:43;4.50;;;0.95;;
62338;SDS011;48368;53.406;6.214;2022-09-14T16:11:09;5.28;;;0.80;;
62338;SDS011;48368;53.406;6.214;2022-09-14T16:13:34;4.30;;;0.73;;
62338;SDS011;48368;53.406;6.214;2022-09-14T16:16:11;5.57;;;0.90;;
62338;SDS011;48368;53.406;6.214;2022-09-14T16:18:38;6.32;;;0.90;;
62338;SDS011;48368;53.406;6.214;2022-09-14T16:21:09;7.18;;;1.10;;
62338;SDS011;48368;53.406;6.214;2022-09-14T16:23:36;4.32;;;0.70;;
62338;SDS011;48368;53.406;6.214;2022-09-14T16:26:04;3.58;;;0.80;;
62338;SDS011;48368;53.406;6.214;2022-09-14T16:28:31;5.13;;;0.90;;
62338;SDS011;48368;53.406;6.214;2022-09-14T16:31:04;7.35;;;0.80;;
62338;SDS011;48368;53.406;6.214;2022-09-14T16:33:42;5.75;;;1.00;;
62338;SDS011;48368;53.406;6.214;2022-09-14T16:36:10;3.63;;;0.80;;
62338;SDS011;48368;53.406;6.214;2022-09-14T16:38:41;2.70;;;0.93;;
62338;SDS011;48368;53.406;6.214;2022-09-14T16:41:08;5.38;;;0.65;;
62338;SDS011;48368;53.406;6.214;2022-09-14T16:43:34;4.00;;;0.70;;
62338;SDS011;48368;53.406;6.214;2022-09-14T16:46:05;5.03;;;0.63;;
62338;SDS011;48368;53.406;6.214;2022-09-14T20:22:25;3.95;;;1.40;;
62338;SDS011;48368;53.406;6.214;2022-09-14T20:24:51;2.97;;;1.52;;
62338;SDS011;48368;53.406;6.214;2022-09-14T20:27:17;6.05;;;1.85;;
62338;SDS011;48368;53.406;6.214;2022-09-14T20:29:43;5.55;;;1.73;;
62338;SDS011;48368;53.406;6.214;2022-09-14T20:32:08;4.88;;;1.85;;
62338;SDS011;48368;53.406;6.214;2022-09-14T20:34:34;4.28;;;1.80;;
62338;SDS011;48368;53.406;6.214;2022-09-14T20:36:59;2.78;;;1.63;;
62338;SDS011;48368;53.406;6.214;2022-09-14T20:39:25;6.25;;;1.70;;
62338;SDS011;48368;53.406;6.214;2022-09-14T20:41:51;4.75;;;1.67;;
62338;SDS011;48368;53.406;6.214;2022-09-14T20:44:17;5.88;;;1.77;;
62338;SDS011;48368;53.406;6.214;2022-09-14T20:46:46;5.25;;;2.00;;
62338;SDS011;48368;53.406;6.214;2022-09-14T20:49:13;3.70;;;1.70;;
62338;SDS011;48368;53.406;6.214;2022-09-14T20:51:43;4.68;;;1.50;;
62338;SDS011;48368;53.406;6.214;2022-09-14T20:54:10;5.38;;;2.10;;
62338;SDS011;48368;53.406;6.214;2022-09-14T20:56:37;7.47;;;2.10;;
62338;SDS011;48368;53.406;6.214;2022-09-14T20:59:05;6.53;;;2.75;;
62338;SDS011;48368;53.406;6.214;2022-09-14T21:01:34;4.70;;;2.03;;
62338;SDS011;48368;53.406;6.214;2022-09-14T21:04:05;7.38;;;2.15;;
62338;SDS011;48368;53.406;6.214;2022-09-14T21:06:34;3.03;;;1.83;;
62338;SDS011;48368;53.406;6.214;2022-09-14T21:09:05;6.03;;;2.38;;
62338;SDS011;48368;53.406;6.214;2022-09-14T21:11:32;4.00;;;2.10;;
62338;SDS011;48368;53.406;6.214;2022-09-14T21:13:58;5.22;;;2.10;;
62338;SDS011;48368;53.406;6.214;2022-09-14T21:16:26;8.05;;;2.03;;
62338;SDS011;48368;53.406;6.214;2022-09-14T21:18:55;8.90;;;2.17;;
62338;SDS011;48368;53.406;6.214;2022-09-14T21:21:25;9.90;;;2.17;;
62338;SDS011;48368;53.406;6.214;2022-09-14T21:23:52;7.65;;;1.90;;
62338;SDS011;48368;53.406;6.214;2022-09-14T21:26:19;4.40;;;1.70;;
62338;SDS011;48368;53.406;6.214;2022-09-14T21:28:46;10.55;;;1.60;;
62338;SDS011;48368;53.406;6.214;2022-09-14T21:31:16;3.17;;;1.13;;
62338;SDS011;48368;53.406;6.214;2022-09-14T21:33:44;6.93;;;1.50;;
62338;SDS011;48368;53.406;6.214;2022-09-14T21:36:16;5.20;;;1.23;;
62338;SDS011;48368;53.406;6.214;2022-09-14T21:38:46;4.70;;;1.30;;
62338;SDS011;48368;53.406;6.214;2022-09-14T21:41:13;8.25;;;1.38;;
62338;SDS011;48368;53.406;6.214;2022-09-14T21:43:40;9.90;;;1.40;;
62338;SDS011;48368;53.406;6.214;2022-09-14T21:46:06;9.38;;;1.45;;
62338;SDS011;48368;53.406;6.214;2022-09-14T21:48:33;4.82;;;0.90;;
62338;SDS011;48368;53.406;6.214;2022-09-14T21:53:34;5.80;;;1.15;;